Time;durP1;ratioP1;P1;durP2;ratioP2;P2;SDS_P1;SDS_P2;PMS_P1;PMS_P2;Temp;Humidity;BMP_temperature;BMP_pressure;BME280_temperature;BME280_humidity;BME280_pressure;Samples;Min_cycle;Max_cycle;Signal;HPM_P1;HPM_P2
2023/01/01 00:02:23;;;;;;;578.57;496.77;;;;;;;6.98;100.00;96566.75;5070143;28;20881;-72
2023/01/01 00:04:49;;;;;;;528.23;457.07;;;;;;;6.82;100.00;96566.31;5067232;28;20444;-72
2023/01/01 00:07:16;;;;;;;571.93;492.53;;;;;;;6.57;100.00;96536.09;5060971;28;20440;-72
2023/01/01 00:12:28;;;;;;;531.43;469.97;;;;;;;6.62;100.00;96559.63;5071172;28;20448;-72
2023/01/01 00:14:54;;;;;;;585.50;507.33;;;;;;;6.52;100.00;96565.09;5069960;28;20843;-72
2023/01/01 00:17:21;;;;;;;533.40;474.50;;;;;;;6.49;100.00;96568.31;5069842;28;20432;-72
2023/01/01 00:19:48;;;;;;;517.67;458.53;;;;;;;6.39;100.00;96569.28;5075061;28;20436;-72
2023/01/01 00:22:14;;;;;;;546.13;464.47;;;;;;;6.24;100.00;96561.69;5063848;28;20446;-72
2023/01/01 00:25:01;;;;;;;514.30;439.27;;;;;;;6.11;100.00;96544.88;5070032;28;20546;-72
2023/01/01 00:27:28;;;;;;;499.83;440.23;;;;;;;6.05;100.00;96529.53;5069522;28;20440;-73
2023/01/01 00:29:55;;;;;;;502.53;431.37;;;;;;;6.12;100.00;96543.03;5069648;28;20471;-74
2023/01/01 00:32:22;;;;;;;514.37;438.60;;;;;;;6.01;100.00;96539.03;5069581;28;20554;-74
2023/01/01 00:34:49;;;;;;;478.13;420.87;;;;;;;6.08;100.00;96555.19;5069653;28;20548;-74
2023/01/01 00:37:17;;;;;;;479.37;417.40;;;;;;;5.97;100.00;96532.81;5074848;28;20480;-74
2023/01/01 00:39:44;;;;;;;452.70;380.63;;;;;;;6.09;100.00;96548.88;5077811;28;20489;-74
2023/01/01 00:42:11;;;;;;;453.93;373.10;;;;;;;5.96;100.00;96520.78;5069617;28;20546;-74
2023/01/01 00:44:37;;;;;;;391.43;320.33;;;;;;;6.23;100.00;96552.28;5052973;28;20806;-74
2023/01/01 00:47:04;;;;;;;414.27;350.50;;;;;;;5.90;100.00;96539.25;5069626;28;20497;-74
2023/01/01 00:49:31;;;;;;;372.37;313.87;;;;;;;5.72;100.00;96526.16;5069531;28;20475;-74
2023/01/01 00:51:58;;;;;;;401.07;332.53;;;;;;;5.73;100.00;96532.94;5069708;28;20550;-74
2023/01/01 00:54:24;;;;;;;354.83;296.63;;;;;;;5.75;100.00;96526.38;5069283;28;20970;-74
2023/01/01 00:56:51;;;;;;;368.40;310.03;;;;;;;5.70;100.00;96533.53;5069512;28;20443;-74
2023/01/01 00:59:18;;;;;;;352.43;295.30;;;;;;;5.71;100.00;96521.97;5070719;28;20448;-74
2023/01/01 01:01:50;;;;;;;340.40;278.73;;;;;;;5.74;100.00;96527.41;5057438;28;20439;-74
2023/01/01 01:04:17;;;;;;;333.37;276.47;;;;;;;5.84;100.00;96535.09;5074531;28;20448;-74
2023/01/01 01:06:44;;;;;;;344.20;289.80;;;;;;;5.79;100.00;96537.84;5056637;28;20439;-74
2023/01/01 01:09:11;;;;;;;325.33;269.07;;;;;;;5.82;100.00;96565.34;5073271;28;20517;-74
2023/01/01 01:11:37;;;;;;;298.43;262.47;;;;;;;5.68;100.00;96560.06;5074516;28;20424;-74
2023/01/01 01:14:04;;;;;;;305.93;249.00;;;;;;;5.54;100.00;96564.50;5073091;28;20454;-74
2023/01/01 01:16:33;;;;;;;249.53;219.03;;;;;;;5.49;100.00;96556.72;5073122;28;20486;-74
2023/01/01 01:19:03;;;;;;;185.67;144.77;;;;;;;5.52;100.00;96562.16;5074352;28;20428;-74
2023/01/01 01:21:31;;;;;;;173.47;143.10;;;;;;;5.49;100.00;96559.34;5072952;28;20463;-74
2023/01/01 01:23:59;;;;;;;150.90;126.23;;;;;;;5.49;100.00;96560.13;5074175;28;20456;-72
2023/01/01 01:26:29;;;;;;;152.63;126.70;;;;;;;5.41;100.00;96560.78;5056417;28;20459;-72
2023/01/01 01:28:56;;;;;;;156.93;133.07;;;;;;;5.32;100.00;96531.03;5072740;28;20817;-72
2023/01/01 01:31:25;;;;;;;176.33;140.83;;;;;;;5.46;100.00;96538.91;5072858;28;20486;-72
2023/01/01 01:33:52;;;;;;;195.97;154.50;;;;;;;5.50;100.00;96545.16;5072632;28;20468;-72
2023/01/01 01:36:19;;;;;;;156.63;130.13;;;;;;;5.14;100.00;96527.38;5056129;28;20440;-72
2023/01/01 01:38:46;;;;;;;110.20;96.57;;;;;;;5.14;100.00;96550.19;5069421;28;20424;-72
2023/01/01 01:41:14;;;;;;;125.37;104.87;;;;;;;5.28;100.00;96556.25;5056073;28;20952;-72
2023/01/01 01:43:57;;;;;;;148.67;120.93;;;;;;;5.47;100.00;96558.81;5058941;28;20470;-72
2023/01/01 01:46:40;;;;;;;140.63;119.57;;;;;;;5.49;100.00;96551.47;5056075;28;20536;-72
2023/01/01 01:49:30;;;;;;;152.90;129.33;;;;;;;5.35;100.00;96538.34;5072566;28;20456;-72
2023/01/01 01:51:59;;;;;;;140.57;114.53;;;;;;;5.12;100.00;96540.00;5072455;28;20428;-72
2023/01/01 01:54:27;;;;;;;99.10;83.67;;;;;;;5.13;100.00;96557.28;5076655;28;20452;-72
2023/01/01 01:56:58;;;;;;;96.70;76.63;;;;;;;5.35;100.00;96551.44;5071907;28;20463;-72
2023/01/01 01:59:31;;;;;;;100.23;75.83;;;;;;;5.16;100.00;96509.53;5073802;28;20417;-72
2023/01/01 02:01:59;;;;;;;86.90;67.53;;;;;;;5.33;100.00;96525.47;5072466;28;20439;-72
2023/01/01 02:04:26;;;;;;;86.53;69.17;;;;;;;5.39;100.00;96539.31;5073456;28;20972;-72
2023/01/01 02:06:54;;;;;;;50.37;41.27;;;;;;;5.36;100.00;96521.53;5072303;28;20467;-72
2023/01/01 02:09:21;;;;;;;51.20;43.30;;;;;;;5.47;100.00;96549.13;5071989;28;20892;-72
2023/01/01 02:11:48;;;;;;;50.20;37.47;;;;;;;5.39;100.00;96533.28;5055506;28;20436;-72
2023/01/01 02:14:15;;;;;;;38.90;33.80;;;;;;;5.20;100.00;96518.34;5069545;28;20455;-72
2023/01/01 02:16:41;;;;;;;46.67;41.37;;;;;;;5.35;100.00;96554.06;5061057;28;20424;-72
2023/01/01 02:19:34;;;;;;;27.10;22.23;;;;;;;4.71;100.00;96524.88;5055297;28;20433;-72
2023/01/01 02:22:40;;;;;;;22.43;20.10;;;;;;;5.22;100.00;96558.19;5072046;28;20452;-72
2023/01/01 02:25:25;;;;;;;23.00;17.37;;;;;;;5.32;100.00;96571.13;5043121;28;20559;-72
2023/01/01 02:28:14;;;;;;;27.07;22.67;;;;;;;4.95;100.00;96532.66;5073099;28;20424;-72
2023/01/01 02:30:44;;;;;;;29.87;25.20;;;;;;;4.92;100.00;96535.03;5051462;28;20440;-72
2023/01/01 02:33:17;;;;;;;18.33;15.70;;;;;;;4.91;100.00;96567.53;5062852;28;20436;-72
2023/01/01 02:36:00;;;;;;;16.50;14.50;;;;;;;4.73;100.00;96575.13;5071600;28;20468;-72
2023/01/01 02:38:38;;;;;;;18.30;15.33;;;;;;;4.83;100.00;96573.44;5085432;28;20860;-72
2023/01/01 02:41:10;;;;;;;18.60;14.10;;;;;;;4.66;100.00;96552.94;5073046;28;20512;-72
2023/01/01 02:43:38;;;;;;;21.33;17.07;;;;;;;4.60;100.00;96557.47;5072712;28;20452;-71
2023/01/01 02:46:11;;;;;;;17.60;15.70;;;;;;;4.69;100.00;96570.72;5072830;28;20463;-71
2023/01/01 02:48:42;;;;;;;22.63;16.80;;;;;;;4.65;100.00;96554.00;5071380;28;20857;-72
2023/01/01 02:51:27;;;;;;;18.90;16.77;;;;;;;4.83;100.00;96582.06;5071592;28;20444;-72
2023/01/01 02:54:17;;;;;;;23.80;17.33;;;;;;;4.75;100.00;96565.13;5072717;28;20455;-72
2023/01/01 02:56:57;;;;;;;25.60;20.17;;;;;;;4.79;100.00;96580.28;5061126;28;20451;-72
2023/01/01 03:02:40;;;;;;;35.43;26.03;;;;;;;4.73;100.00;96564.63;5061544;28;20435;-71
2023/01/01 03:05:29;;;;;;;31.87;28.37;;;;;;;4.69;100.00;96565.50;5060631;28;20432;-72
2023/01/01 03:08:02;;;;;;;29.00;21.00;;;;;;;4.71;100.00;96572.00;5040871;28;20441;-72
2023/01/01 03:10:57;;;;;;;29.63;24.60;;;;;;;4.62;100.00;96544.88;5062377;28;20444;-72
2023/01/01 03:13:28;;;;;;;24.60;21.20;;;;;;;4.53;100.00;96533.47;5059278;28;20464;-72
2023/01/01 03:15:59;;;;;;;28.13;21.87;;;;;;;4.70;100.00;96567.81;5070916;28;20468;-72
2023/01/01 03:18:38;;;;;;;24.90;18.20;;;;;;;4.83;100.00;96568.19;5072377;28;20996;-72
2023/01/01 03:21:07;;;;;;;27.13;20.23;;;;;;;4.48;100.00;96524.91;5054137;28;20523;-72
2023/01/01 03:23:45;;;;;;;33.53;25.60;;;;;;;4.78;100.00;96581.34;5079301;28;20440;-71
2023/01/01 03:26:19;;;;;;;26.63;23.80;;;;;;;4.60;100.00;96552.25;5056497;28;20459;-71
2023/01/01 03:28:52;;;;;;;38.37;29.47;;;;;;;4.74;100.00;96562.81;5046670;28;20469;-71
2023/01/01 03:31:24;;;;;;;24.93;19.60;;;;;;;4.55;100.00;96538.44;5054466;28;20844;-71
2023/01/01 03:34:01;;;;;;;21.60;19.27;;;;;;;4.83;100.00;96566.34;5070656;28;20535;-71
2023/01/01 03:36:34;;;;;;;22.27;18.03;;;;;;;4.72;100.00;96560.47;5070519;28;20454;-71
2023/01/01 03:39:18;;;;;;;22.00;17.23;;;;;;;4.55;100.00;96527.97;5083885;28;20809;-71
2023/01/01 03:42:04;;;;;;;22.20;18.97;;;;;;;4.75;100.00;96551.25;5070234;28;20460;-72
2023/01/01 03:44:37;;;;;;;21.40;16.83;;;;;;;4.65;100.00;96559.25;5071575;28;20494;-72
2023/01/01 03:47:05;;;;;;;20.50;14.87;;;;;;;4.66;100.00;96568.66;5070490;28;20432;-72
2023/01/01 03:49:33;;;;;;;22.47;15.47;;;;;;;4.51;100.00;96540.06;5071564;28;20452;-72
2023/01/01 03:52:06;;;;;;;23.13;17.03;;;;;;;4.80;100.00;96568.72;5053781;28;20441;-72
2023/01/01 03:54:51;;;;;;;27.43;19.37;;;;;;;4.71;100.00;96560.75;5070113;28;20806;-72
2023/01/01 03:57:33;;;;;;;29.80;22.90;;;;;;;4.57;100.00;96549.41;5070284;28;20447;-72
2023/01/01 04:00:10;;;;;;;28.57;22.13;;;;;;;4.71;100.00;96571.22;5070208;28;20495;-72
2023/01/01 04:03:09;;;;;;;28.70;21.27;;;;;;;4.65;100.00;96578.34;5070802;28;20488;-72
2023/01/01 04:05:39;;;;;;;21.10;17.60;;;;;;;4.58;100.00;96580.56;5053538;28;20966;-72
2023/01/01 04:08:07;;;;;;;19.23;15.70;;;;;;;4.48;100.00;96590.34;5053442;28;20440;-71
2023/01/01 04:10:38;;;;;;;20.90;13.87;;;;;;;4.35;100.00;96605.69;5053656;28;20886;-72
2023/01/01 04:13:08;;;;;;;18.07;11.93;;;;;;;4.18;100.00;96568.72;5070019;28;21313;-72
2023/01/01 04:15:35;;;;;;;27.33;18.93;;;;;;;4.41;100.00;96583.63;5069992;28;20439;-72
2023/01/01 04:18:02;;;;;;;22.10;16.50;;;;;;;4.43;100.00;96593.81;5069932;28;20822;-73
2023/01/01 04:20:29;;;;;;;27.70;21.77;;;;;;;4.37;100.00;96597.53;5069813;28;20443;-73
2023/01/01 04:23:01;;;;;;;23.80;18.67;;;;;;;4.09;100.00;96607.00;5069856;28;20444;-73
2023/01/01 04:25:28;;;;;;;22.97;15.80;;;;;;;3.86;100.00;96580.53;5070005;28;20471;-73
2023/01/01 04:27:57;;;;;;;20.87;17.23;;;;;;;4.04;100.00;96596.59;5070008;28;20462;-73
2023/01/01 04:30:23;;;;;;;37.87;20.97;;;;;;;3.93;100.00;96582.06;5053213;28;20990;-71
2023/01/01 04:32:50;;;;;;;35.03;20.50;;;;;;;3.81;100.00;96572.75;5069832;28;20940;-73
2023/01/01 04:35:17;;;;;;;26.40;22.43;;;;;;;4.07;100.00;96602.06;5069792;28;20476;-73
2023/01/01 04:37:44;;;;;;;23.90;17.00;;;;;;;4.00;100.00;96604.19;5081611;28;20423;-73
2023/01/01 04:40:13;;;;;;;21.53;18.87;;;;;;;3.86;100.00;96582.38;5081039;28;20420;-73
2023/01/01 04:42:40;;;;;;;29.73;21.83;;;;;;;3.89;100.00;96591.53;5077762;28;20519;-73
2023/01/01 04:45:07;;;;;;;29.17;22.67;;;;;;;3.76;100.00;96577.25;5077621;28;20531;-73
2023/01/01 04:47:34;;;;;;;23.63;18.77;;;;;;;3.85;100.00;96609.59;5076361;28;20444;-73
2023/01/01 04:50:00;;;;;;;25.17;18.10;;;;;;;3.72;100.00;96608.38;5076196;28;20467;-73
2023/01/01 04:52:27;;;;;;;26.30;20.33;;;;;;;3.79;100.00;96598.41;5077688;28;20420;-73
2023/01/01 04:54:54;;;;;;;26.93;20.57;;;;;;;3.56;100.00;96568.53;5077514;28;20555;-73
2023/01/01 04:57:21;;;;;;;29.20;20.20;;;;;;;3.63;100.00;96590.97;5076260;28;20428;-73
2023/01/01 04:59:47;;;;;;;28.30;20.53;;;;;;;3.73;100.00;96611.78;5062955;28;20882;-73
2023/01/01 05:02:14;;;;;;;30.23;23.40;;;;;;;3.75;100.00;96607.84;5076262;28;20514;-73
2023/01/01 05:04:41;;;;;;;34.53;25.97;;;;;;;3.62;100.00;96590.19;5077402;28;20443;-74
2023/01/01 05:07:07;;;;;;;29.40;23.50;;;;;;;3.46;100.00;96592.13;5076225;28;20500;-74
2023/01/01 05:09:34;;;;;;;30.10;22.27;;;;;;;3.35;100.00;96597.72;5072645;28;20866;-74
2023/01/01 05:12:01;;;;;;;31.40;20.70;;;;;;;3.43;100.00;96608.38;5066354;28;20435;-73
2023/01/01 05:14:28;;;;;;;25.00;19.60;;;;;;;3.53;100.00;96629.19;5077326;28;20483;-72
2023/01/01 05:16:56;;;;;;;24.57;20.53;;;;;;;3.41;100.00;96604.47;5076100;28;20950;-72
2023/01/01 05:19:22;;;;;;;30.37;19.37;;;;;;;3.35;100.00;96593.28;5071639;28;20531;-72
2023/01/01 05:21:49;;;;;;;24.97;20.63;;;;;;;3.47;100.00;96606.78;5067178;28;20440;-72
2023/01/01 05:24:16;;;;;;;25.13;21.87;;;;;;;3.54;100.00;96601.22;5062520;28;20971;-72
2023/01/01 05:26:43;;;;;;;29.37;21.60;;;;;;;3.73;100.00;96630.88;5076203;28;20427;-72
2023/01/01 05:29:10;;;;;;;24.77;20.40;;;;;;;3.55;100.00;96616.63;5059458;28;20475;-72
2023/01/01 05:31:43;;;;;;;34.60;22.27;;;;;;;3.69;100.00;96636.94;5076127;28;20420;-72
2023/01/01 05:34:11;;;;;;;30.33;22.43;;;;;;;3.42;100.00;96608.63;5075842;28;20463;-72
2023/01/01 05:36:38;;;;;;;28.50;20.23;;;;;;;3.46;100.00;96628.72;5077477;28;20916;-72
2023/01/01 05:39:11;;;;;;;27.00;22.50;;;;;;;3.50;100.00;96653.28;5090942;28;20443;-71
2023/01/01 05:41:39;;;;;;;24.40;19.50;;;;;;;3.47;100.00;96659.06;5075837;28;20794;-71
2023/01/01 05:44:07;;;;;;;25.93;20.93;;;;;;;3.26;100.00;96647.16;5075706;28;20447;-71
2023/01/01 05:46:35;;;;;;;26.00;19.53;;;;;;;3.31;100.00;96668.03;5075730;28;20440;-71
2023/01/01 05:49:02;;;;;;;22.43;17.87;;;;;;;3.34;100.00;96649.22;5060754;28;20496;-71
2023/01/01 05:51:29;;;;;;;22.63;18.00;;;;;;;3.30;100.00;96668.28;5067587;28;20947;-71
2023/01/01 05:53:57;;;;;;;22.57;20.27;;;;;;;3.31;100.00;96681.09;5055861;28;20459;-71
2023/01/01 05:56:25;;;;;;;28.63;20.43;;;;;;;3.34;100.00;96667.50;5073748;28;20426;-71
2023/01/01 05:58:53;;;;;;;25.63;19.73;;;;;;;3.37;100.00;96690.47;5072552;28;20535;-71
2023/01/01 06:01:25;;;;;;;22.63;18.23;;;;;;;3.36;100.00;96696.75;5072363;28;20531;-71
2023/01/01 06:03:54;;;;;;;25.87;19.30;;;;;;;3.23;100.00;96697.34;5072370;28;20984;-71
2023/01/01 06:06:24;;;;;;;26.07;19.23;;;;;;;2.81;100.00;96638.53;5072240;28;20451;-71
2023/01/01 06:08:54;;;;;;;23.03;19.87;;;;;;;3.18;100.00;96690.31;5072406;28;20420;-71
2023/01/01 06:11:21;;;;;;;24.83;19.70;;;;;;;3.14;100.00;96688.50;5072156;28;21004;-71
2023/01/01 06:13:53;;;;;;;28.03;20.97;;;;;;;3.17;100.00;96686.13;5055539;28;20465;-71
2023/01/01 06:16:20;;;;;;;27.73;20.80;;;;;;;3.20;100.00;96684.81;5072077;28;20483;-71
2023/01/01 06:18:47;;;;;;;23.50;19.10;;;;;;;3.12;100.00;96682.78;5073436;28;20424;-71
2023/01/01 06:21:17;;;;;;;21.67;18.50;;;;;;;2.75;100.00;96668.31;5071910;28;20432;-71
2023/01/01 06:23:44;;;;;;;22.30;17.10;;;;;;;2.93;100.00;96674.75;5072202;28;20503;-71
2023/01/01 06:26:15;;;;;;;27.70;21.33;;;;;;;2.81;100.00;96648.97;5071848;28;20447;-71
2023/01/01 06:28:43;;;;;;;19.70;16.93;;;;;;;3.03;100.00;96692.22;5055252;28;20991;-71
2023/01/01 06:31:12;;;;;;;21.70;16.80;;;;;;;2.79;100.00;96658.09;5055436;28;20575;-71
2023/01/01 06:33:39;;;;;;;20.50;16.90;;;;;;;2.77;100.00;96665.44;5073178;28;20451;-71
2023/01/01 06:36:08;;;;;;;21.53;18.40;;;;;;;2.82;100.00;96671.44;5073064;28;20440;-71
2023/01/01 06:38:39;;;;;;;26.23;18.70;;;;;;;2.94;100.00;96692.78;5085073;28;20442;-71
2023/01/01 06:41:12;;;;;;;23.70;18.87;;;;;;;2.94;100.00;96692.78;5073260;28;20413;-71
2023/01/01 06:43:39;;;;;;;24.27;19.30;;;;;;;2.86;100.00;96682.09;5071607;28;20802;-71
2023/01/01 06:46:14;;;;;;;23.13;17.73;;;;;;;2.91;100.00;96698.53;5071464;28;20440;-71
2023/01/01 06:48:42;;;;;;;24.40;18.20;;;;;;;2.80;100.00;96698.81;5072843;28;20420;-71
2023/01/01 06:51:11;;;;;;;23.70;17.80;;;;;;;2.75;100.00;96678.75;5054816;28;20452;-71
2023/01/01 06:53:37;;;;;;;23.90;19.93;;;;;;;2.67;100.00;96674.88;5051935;28;20466;-71
2023/01/01 06:56:05;;;;;;;22.37;18.40;;;;;;;2.89;100.00;96703.25;5064354;28;20467;-71
2023/01/01 06:58:32;;;;;;;20.60;17.57;;;;;;;2.91;100.00;96708.19;5072568;28;20432;-71
2023/01/01 07:01:09;;;;;;;25.50;19.33;;;;;;;2.94;100.00;96698.00;5072443;28;20428;-71
2023/01/01 07:03:37;;;;;;;25.77;18.80;;;;;;;2.88;100.00;96690.44;5060545;28;20448;-71
2023/01/01 07:06:05;;;;;;;22.87;19.73;;;;;;;2.79;100.00;96689.44;5071031;28;20501;-71
2023/01/01 07:08:32;;;;;;;23.57;17.80;;;;;;;2.88;100.00;96713.94;5071022;28;20472;-71
2023/01/01 07:10:58;;;;;;;25.60;20.07;;;;;;;2.73;100.00;96688.69;5070940;28;20495;-71
2023/01/01 07:13:29;;;;;;;24.27;18.00;;;;;;;2.92;100.00;96720.97;5072181;28;20975;-71
2023/01/01 07:15:59;;;;;;;21.47;18.93;;;;;;;2.99;100.00;96720.69;5072491;28;20420;-71
2023/01/01 07:18:25;;;;;;;23.37;18.87;;;;;;;2.78;100.00;96706.94;5054348;28;20498;-71
2023/01/01 07:20:54;;;;;;;27.50;18.90;;;;;;;3.07;100.00;96729.81;5054316;28;20523;-71
2023/01/01 07:23:22;;;;;;;24.87;20.67;;;;;;;3.30;100.00;96736.22;5070693;28;20835;-71
2023/01/01 07:25:50;;;;;;;61.63;41.23;;;;;;;3.32;100.00;96742.75;5070741;28;20431;-71
2023/01/01 07:28:17;;;;;;;43.20;30.53;;;;;;;3.26;100.00;96731.56;5072105;28;20512;-71
2023/01/01 07:30:44;;;;;;;27.97;21.87;;;;;;;3.00;100.00;96705.81;5070696;28;20456;-71
2023/01/01 07:33:15;;;;;;;27.93;19.10;;;;;;;3.08;100.00;96724.34;5053938;28;20531;-71
2023/01/01 07:35:43;;;;;;;28.23;22.00;;;;;;;3.19;100.00;96753.78;5053861;28;20949;-71
2023/01/01 07:38:11;;;;;;;25.80;20.50;;;;;;;3.10;100.00;96748.34;5066406;28;20955;-71
2023/01/01 07:40:38;;;;;;;30.90;19.40;;;;;;;3.05;100.00;96731.91;5054529;28;20436;-71
2023/01/01 07:43:05;;;;;;;25.77;18.53;;;;;;;3.16;100.00;96749.88;5053766;28;20440;-71
2023/01/01 07:45:33;;;;;;;24.30;19.53;;;;;;;3.16;100.00;96749.09;5071524;28;20539;-71
2023/01/01 07:48:00;;;;;;;26.80;18.93;;;;;;;3.15;100.00;96750.94;5070337;28;20464;-71
2023/01/01 07:50:30;;;;;;;22.40;18.60;;;;;;;3.07;100.00;96742.84;5053511;28;21055;-71
2023/01/01 07:52:57;;;;;;;29.93;19.27;;;;;;;3.13;100.00;96754.88;5053823;28;20436;-71
2023/01/01 07:55:24;;;;;;;24.80;18.13;;;;;;;2.88;100.00;96724.41;5070413;28;20429;-71
2023/01/01 07:57:50;;;;;;;26.47;17.40;;;;;;;3.11;100.00;96757.75;5069995;28;20443;-71
2023/01/01 08:00:19;;;;;;;22.80;18.30;;;;;;;3.17;100.00;96761.88;5070321;28;20462;-71
2023/01/01 08:02:46;;;;;;;25.60;20.67;;;;;;;3.36;100.00;96771.75;5071371;28;20434;-71
2023/01/01 08:05:13;;;;;;;24.73;18.53;;;;;;;3.44;100.00;96771.97;5053531;28;20471;-71
2023/01/01 08:07:45;;;;;;;28.10;18.10;;;;;;;3.55;100.00;96775.31;5069932;28;20440;-71
2023/01/01 08:10:12;;;;;;;30.20;19.47;;;;;;;3.69;100.00;96780.72;5069945;28;20518;-71
2023/01/01 08:12:39;;;;;;;31.10;24.70;;;;;;;3.71;100.00;96783.84;5070706;28;20518;-71
2023/01/01 08:15:07;;;;;;;38.20;29.87;;;;;;;3.97;100.00;96774.78;5053204;28;21162;-71
2023/01/01 08:17:33;;;;;;;43.90;34.07;;;;;;;3.72;100.00;96741.75;5071097;28;20465;-71
2023/01/01 08:20:00;;;;;;;38.87;28.23;;;;;;;3.85;100.00;96745.56;5069783;28;20944;-71
2023/01/01 08:22:27;;;;;;;28.57;25.20;;;;;;;3.81;100.00;96745.34;5069758;28;20958;-71
2023/01/01 08:24:53;;;;;;;36.40;24.40;;;;;;;4.08;100.00;96757.19;5069849;28;20448;-71
2023/01/01 08:27:20;;;;;;;28.30;21.37;;;;;;;4.01;100.00;96747.06;5071040;28;20524;-71
2023/01/01 08:29:47;;;;;;;29.53;23.77;;;;;;;4.20;100.00;96775.16;5071063;28;20974;-71
2023/01/01 08:32:14;;;;;;;27.00;21.73;;;;;;;4.24;100.00;96776.16;5069661;28;20542;-71
2023/01/01 08:34:40;;;;;;;24.23;20.03;;;;;;;4.40;100.00;96775.75;5053055;28;20539;-71
2023/01/01 08:37:12;;;;;;;24.17;19.53;;;;;;;4.32;100.00;96772.97;5056720;28;20432;-71
2023/01/01 08:39:39;;;;;;;21.60;18.37;;;;;;;4.32;100.00;96747.56;5080254;28;20515;-71
2023/01/01 08:42:06;;;;;;;25.53;21.07;;;;;;;4.71;100.00;96773.66;5052965;28;20543;-71
2023/01/01 08:44:38;;;;;;;29.87;23.70;;;;;;;4.60;100.00;96747.84;5069512;28;20539;-71
2023/01/01 08:47:04;;;;;;;26.30;20.73;;;;;;;4.54;100.00;96751.56;5069600;28;20924;-71
2023/01/01 08:49:31;;;;;;;24.87;19.57;;;;;;;4.62;100.00;96782.38;5070847;28;20783;-71
2023/01/01 08:51:58;;;;;;;28.00;21.40;;;;;;;4.70;100.00;96787.03;5069767;28;20523;-71
2023/01/01 08:54:24;;;;;;;29.60;22.17;;;;;;;4.58;100.00;96755.97;5069700;28;21067;-71
2023/01/01 08:56:51;;;;;;;25.70;20.67;;;;;;;4.81;100.00;96761.50;5069482;28;20475;-71
2023/01/01 08:59:18;;;;;;;25.90;21.43;;;;;;;5.21;100.00;96787.28;5069382;28;20444;-71
2023/01/01 09:01:46;;;;;;;24.80;19.33;;;;;;;5.31;100.00;96789.78;5069507;28;20932;-71
2023/01/01 09:04:13;;;;;;;27.30;20.00;;;;;;;5.53;100.00;96786.63;5070642;28;20460;-71
2023/01/01 09:06:41;;;;;;;31.47;22.43;;;;;;;5.61;100.00;96770.28;5053019;28;20436;-71
2023/01/01 09:09:08;;;;;;;27.30;19.00;;;;;;;5.66;100.00;96790.41;5069153;28;20436;-71
2023/01/01 09:11:35;;;;;;;26.83;19.47;;;;;;;5.55;100.00;96749.63;5069096;28;21033;-71
2023/01/01 09:14:01;;;;;;;23.73;17.67;;;;;;;5.74;100.00;96776.63;5070593;28;20555;-71
2023/01/01 09:16:28;;;;;;;22.43;18.23;;;;;;;5.83;100.00;96774.94;5069464;28;20436;-71
2023/01/01 09:18:55;;;;;;;23.80;18.20;;;;;;;5.92;100.00;96781.16;5069303;28;20424;-70
2023/01/01 09:21:21;;;;;;;27.10;20.33;;;;;;;6.14;100.00;96785.00;5055730;28;20433;-71
2023/01/01 09:23:48;;;;;;;23.67;19.13;;;;;;;6.33;100.00;96803.38;5069316;28;20444;-71
2023/01/01 09:26:15;;;;;;;22.03;17.90;;;;;;;6.17;100.00;96782.63;5072918;28;20452;-71
2023/01/01 09:28:41;;;;;;;19.20;16.90;;;;;;;6.13;100.00;96789.47;5072787;28;20436;-71
2023/01/01 09:31:08;;;;;;;23.97;19.10;;;;;;;6.31;100.00;96806.28;5072907;28;20590;-71
2023/01/01 09:33:35;;;;;;;30.13;20.50;;;;;;;6.34;100.00;96799.69;5072831;28;20458;-71
2023/01/01 09:36:32;;;;;;;23.90;18.93;;;;;;;6.50;100.00;96804.41;5072872;28;20983;-71
2023/01/01 09:38:59;;;;;;;21.77;17.27;;;;;;;6.47;100.00;96794.47;5047119;28;20483;-72
2023/01/01 09:41:53;;;;;;;29.57;20.70;;;;;;;6.59;100.00;96811.63;5072970;28;21011;-72
2023/01/01 09:44:29;;;;;;;33.70;20.73;;;;;;;6.66;100.00;96809.41;5072614;28;20555;-72
2023/01/01 09:47:01;;;;;;;28.73;20.17;;;;;;;6.68;100.00;96805.44;5073893;28;20481;-73
2023/01/01 09:49:36;;;;;;;27.77;20.87;;;;;;;6.77;100.00;96805.53;5072867;28;20787;-72
2023/01/01 09:52:24;;;;;;;25.23;20.43;;;;;;;6.73;100.00;96794.06;5072904;28;20470;-72
2023/01/01 09:54:57;;;;;;;24.23;19.43;;;;;;;6.99;100.00;96820.66;4975745;28;20567;-72
2023/01/01 09:57:30;;;;;;;27.17;19.67;;;;;;;6.87;100.00;96794.84;4992180;28;20435;-72
2023/01/01 09:59:58;;;;;;;27.87;19.80;;;;;;;7.13;100.00;96808.31;4992026;28;20436;-72
2023/01/01 10:02:43;;;;;;;27.03;20.43;;;;;;;7.18;100.00;96813.47;4976100;28;20957;-73
2023/01/01 10:05:37;;;;;;;24.50;17.70;;;;;;;7.29;100.00;96799.06;4960609;28;20546;-73
2023/01/01 10:08:16;;;;;;;26.03;17.70;;;;;;;7.59;100.00;96815.31;4975830;28;20802;-73
2023/01/01 10:11:03;;;;;;;23.30;18.30;;;;;;;7.83;100.00;96804.53;4991999;28;20459;-73
2023/01/01 10:13:38;;;;;;;24.33;18.80;;;;;;;7.94;100.00;96811.94;4975857;28;20464;-72
2023/01/01 10:16:17;;;;;;;25.07;16.20;;;;;;;8.09;100.00;96813.44;4975497;28;20494;-72
2023/01/01 10:18:55;;;;;;;19.43;15.50;;;;;;;8.33;100.00;96815.03;4990713;28;20967;-73
2023/01/01 10:21:36;;;;;;;22.50;17.97;;;;;;;8.34;100.00;96792.88;4975952;28;20470;-72
2023/01/01 10:24:11;;;;;;;20.50;16.40;;;;;;;8.59;100.00;96818.66;4976731;28;20456;-73
2023/01/01 10:26:39;;;;;;;19.90;16.60;;;;;;;8.46;100.00;96787.88;4991704;28;20439;-73
2023/01/01 10:29:14;;;;;;;16.63;13.90;;;;;;;8.46;100.00;96756.25;4991537;28;20448;-72
2023/01/01 10:31:44;;;;;;;20.83;16.73;;;;;;;8.98;100.00;96807.38;5015536;28;20473;-72
2023/01/01 10:34:17;;;;;;;18.70;16.50;;;;;;;8.98;100.00;96806.63;5072182;28;20440;-73
2023/01/01 10:36:44;;;;;;;22.07;19.20;;;;;;;9.02;100.00;96795.16;5072912;28;20477;-73
2023/01/01 10:39:17;;;;;;;22.00;17.93;;;;;;;9.08;100.00;96786.03;5086003;28;20866;-73
2023/01/01 10:41:44;;;;;;;20.57;17.10;;;;;;;9.25;100.00;96787.94;5072842;28;20412;-73
2023/01/01 10:44:14;;;;;;;17.77;14.23;;;;;;;9.19;100.00;96771.47;5072749;28;20448;-73
2023/01/01 10:46:45;;;;;;;16.43;13.17;;;;;;;9.48;100.00;96812.38;5071488;28;20440;-73
2023/01/01 10:49:13;;;;;;;15.07;11.80;;;;;;;9.59;100.00;96808.34;5071491;28;20420;-73
2023/01/01 10:51:49;;;;;;;16.30;11.47;;;;;;;9.69;100.00;96817.84;5071445;28;20539;-73
2023/01/01 10:54:35;;;;;;;17.60;10.90;;;;;;;9.76;100.00;96821.63;5072705;28;20448;-72
2023/01/01 10:57:26;;;;;;;13.00;11.60;;;;;;;9.85;100.00;96829.53;5058475;28;20532;-73
2023/01/01 11:00:08;;;;;;;8.77;7.23;;;;;;;10.24;100.00;96831.31;5072491;28;20428;-73
2023/01/01 11:02:36;;;;;;;7.43;5.70;;;;;;;10.65;100.00;96828.16;5054777;28;20504;-72
2023/01/01 11:05:13;;;;;;;7.83;5.80;;;;;;;11.22;100.00;96846.41;5070992;28;20456;-73
2023/01/01 11:07:47;;;;;;;7.27;5.90;;;;;;;11.51;100.00;96842.22;5071054;28;20440;-73
2023/01/01 11:10:25;;;;;;;4.33;3.93;;;;;;;11.82;100.00;96863.91;5071123;28;20482;-73
2023/01/01 11:12:53;;;;;;;6.50;5.20;;;;;;;11.99;100.00;96854.28;5072330;28;20474;-73
2023/01/01 11:15:41;;;;;;;10.50;5.50;;;;;;;12.06;100.00;96851.91;5072367;28;20486;-73
2023/01/01 11:18:26;;;;;;;9.47;6.20;;;;;;;12.23;100.00;96865.03;5054384;28;20527;-73
2023/01/01 11:20:55;;;;;;;10.10;7.00;;;;;;;12.25;100.00;96870.03;5072125;28;20427;-73
2023/01/01 11:23:37;;;;;;;7.70;5.90;;;;;;;12.26;100.00;96860.97;5070668;28;20554;-73
2023/01/01 11:26:16;;;;;;;11.93;9.07;;;;;;;12.36;100.00;96866.66;5070937;28;20836;-73
2023/01/01 11:29:16;;;;;;;15.00;10.03;;;;;;;12.42;100.00;96864.59;5071928;28;20428;-73
2023/01/01 11:31:45;;;;;;;8.63;6.47;;;;;;;12.48;100.00;96865.94;5051836;28;20468;-73
2023/01/01 11:34:28;;;;;;;7.63;5.87;;;;;;;12.56;100.00;96869.66;5070461;28;20506;-73
2023/01/01 11:37:13;;;;;;;7.33;4.90;;;;;;;12.67;100.00;96865.47;5055868;28;20890;-73
2023/01/01 11:39:49;;;;;;;6.07;3.67;;;;;;;12.59;100.00;96832.63;5079382;28;20493;-73